createdAt,value
2023-02-12T00:00:03.918Z,0
2023-02-12T00:01:02.435Z,0
2023-02-12T00:02:02.643Z,0
2023-02-12T00:03:02.471Z,0
2023-02-12T00:04:05.591Z,0
2023-02-12T00:05:02.495Z,0
2023-02-12T00:06:02.985Z,0
2023-02-12T00:07:02.466Z,0
2023-02-12T00:08:02.529Z,0
2023-02-12T00:09:02.488Z,0
2023-02-12T00:10:05.523Z,0
2023-02-12T00:11:02.467Z,0
2023-02-12T00:12:02.547Z,0
2023-02-12T00:13:03.578Z,0
2023-02-12T00:14:02.591Z,0
2023-02-12T00:15:05.558Z,0
2023-02-12T00:16:03.766Z,0
2023-02-12T00:17:02.507Z,0
2023-02-12T00:18:02.495Z,0
2023-02-12T00:19:02.461Z,0
2023-02-12T00:20:02.479Z,0
2023-02-12T00:21:05.241Z,0
2023-02-12T00:22:02.492Z,0
2023-02-12T00:23:02.536Z,0
2023-02-12T00:24:02.490Z,0
2023-02-12T00:25:02.526Z,0
2023-02-12T00:26:05.730Z,0
2023-02-12T00:27:02.503Z,0
2023-02-12T00:28:02.702Z,0
2023-02-12T00:29:02.518Z,0
2023-02-12T00:30:02.771Z,0
2023-02-12T00:31:03.036Z,0
2023-02-12T00:32:02.916Z,0
2023-02-12T00:33:02.618Z,0
2023-02-12T00:34:02.555Z,0
2023-02-12T00:35:03.573Z,0
2023-02-12T00:36:02.955Z,0
2023-02-12T00:37:02.714Z,0
2023-02-12T00:38:02.559Z,0
2023-02-12T00:39:02.711Z,0
2023-02-12T00:40:02.518Z,0
2023-02-12T00:41:02.503Z,0
2023-02-12T00:42:02.520Z,0
2023-02-12T00:43:02.520Z,0
2023-02-12T00:44:05.253Z,0
2023-02-12T00:45:02.541Z,0
2023-02-12T00:46:03.945Z,0
2023-02-12T00:47:02.546Z,0
2023-02-12T00:48:05.427Z,0
2023-02-12T00:49:02.542Z,0
2023-02-12T00:50:02.559Z,0
2023-02-12T00:51:02.556Z,0
2023-02-12T00:52:02.549Z,0
2023-02-12T00:53:02.521Z,0
2023-02-12T00:54:02.567Z,0
2023-02-12T00:55:02.592Z,0
2023-02-12T00:56:03.287Z,0
2023-02-12T00:57:02.570Z,0
2023-02-12T00:58:02.556Z,0
2023-02-12T00:59:05.371Z,0
2023-02-12T01:00:02.596Z,0
2023-02-12T01:01:03.600Z,0
2023-02-12T01:02:02.952Z,0
2023-02-12T01:03:02.566Z,0
2023-02-12T01:04:03.160Z,0
2023-02-12T01:05:02.839Z,0
2023-02-12T01:06:03.406Z,0
2023-02-12T01:07:02.592Z,0
2023-02-12T01:08:02.612Z,0
2023-02-12T01:09:02.615Z,0
2023-02-12T01:10:05.570Z,0
2023-02-12T01:11:02.597Z,0
2023-02-12T01:12:02.589Z,0
2023-02-12T01:13:02.630Z,0
2023-02-12T01:14:02.621Z,0
2023-02-12T01:15:05.587Z,0
2023-02-12T01:16:03.658Z,0
2023-02-12T01:17:02.617Z,0
2023-02-12T01:18:02.634Z,0
2023-02-12T01:19:03.217Z,0
2023-02-12T01:20:02.573Z,0
2023-02-12T01:21:05.461Z,0
2023-02-12T01:22:02.582Z,0
2023-02-12T01:23:05.333Z,0
2023-02-12T01:24:02.632Z,0
2023-02-12T01:25:05.374Z,0
2023-02-12T01:26:05.802Z,0
2023-02-12T01:27:02.577Z,0
2023-02-12T01:28:02.766Z,0
2023-02-12T01:29:02.658Z,0
2023-02-12T01:30:02.618Z,0
2023-02-12T01:31:03.213Z,0
2023-02-12T01:32:03.249Z,0
2023-02-12T01:33:03.642Z,0
2023-02-12T01:34:02.808Z,0
2023-02-12T01:35:02.300Z,0
2023-02-12T01:36:03.054Z,0
2023-02-12T01:37:02.615Z,0
2023-02-12T01:38:05.310Z,0
2023-02-12T01:39:02.631Z,0
2023-02-12T01:40:02.645Z,0
2023-02-12T01:41:05.393Z,0
2023-02-12T01:42:02.631Z,0
2023-02-12T01:43:02.632Z,0
2023-02-12T01:44:02.654Z,0
2023-02-12T01:45:02.645Z,0
2023-02-12T01:46:03.226Z,0
2023-02-12T01:47:02.653Z,0
2023-02-12T01:48:02.660Z,0
2023-02-12T01:49:02.647Z,0
2023-02-12T01:50:02.772Z,0
2023-02-12T01:51:05.389Z,0
2023-02-12T01:52:02.688Z,0
2023-02-12T01:53:05.750Z,0
2023-02-12T01:54:02.666Z,0
2023-02-12T01:55:07.091Z,0
2023-02-12T01:56:03.000Z,0
2023-02-12T01:57:02.692Z,0
2023-02-12T01:58:02.674Z,0
2023-02-12T01:59:02.674Z,0
2023-02-12T02:00:02.698Z,0
2023-02-12T02:01:02.654Z,0
2023-02-12T02:02:03.022Z,0
2023-02-12T02:03:02.883Z,0
2023-02-12T02:04:06.623Z,0
2023-02-12T02:05:02.783Z,0
2023-02-12T02:08:02.734Z,0
2023-02-12T02:09:05.526Z,0
2023-02-12T02:10:02.687Z,0
2023-02-12T02:11:02.678Z,0
2023-02-12T02:12:02.671Z,0
2023-02-12T02:13:02.690Z,0
2023-02-12T02:14:02.667Z,0
2023-02-12T02:15:05.542Z,0
2023-02-12T02:16:03.780Z,0
2023-02-12T02:17:02.693Z,0
2023-02-12T02:18:02.696Z,0
2023-02-12T02:19:02.773Z,0
2023-02-12T02:20:06.544Z,0
2023-02-12T02:21:05.423Z,0
2023-02-12T02:22:02.847Z,0
2023-02-12T02:23:02.532Z,0
2023-02-12T02:24:02.747Z,0
2023-02-12T02:25:02.726Z,0
2023-02-12T02:26:06.174Z,0
2023-02-12T02:27:02.786Z,0
2023-02-12T02:28:02.876Z,0
2023-02-12T02:29:02.703Z,0
2023-02-12T02:30:02.751Z,0
2023-02-12T02:31:06.188Z,0
2023-02-12T02:32:02.993Z,0
2023-02-12T02:33:03.726Z,0
2023-02-12T02:34:05.417Z,0
2023-02-12T02:35:02.745Z,0
2023-02-12T02:36:03.223Z,0
2023-02-12T02:37:11.042Z,0
2023-02-12T02:38:02.708Z,0
2023-02-12T02:39:02.743Z,0
2023-02-12T02:40:02.833Z,0
2023-02-12T02:41:02.711Z,0
2023-02-12T02:42:05.931Z,0
2023-02-12T02:43:02.740Z,0
2023-02-12T02:44:02.732Z,0
2023-02-12T02:45:02.785Z,0
2023-02-12T02:46:04.213Z,0
2023-02-12T02:47:02.867Z,0
2023-02-12T02:48:02.776Z,0
2023-02-12T02:49:02.706Z,0
2023-02-12T02:50:02.821Z,0
2023-02-12T02:51:02.725Z,0
2023-02-12T02:52:02.779Z,0
2023-02-12T02:53:05.500Z,0
2023-02-12T02:54:02.690Z,0
2023-02-12T02:55:02.771Z,0
2023-02-12T02:56:03.332Z,0
2023-02-12T02:57:02.697Z,0
2023-02-12T02:58:02.751Z,0
2023-02-12T02:59:02.739Z,0
2023-02-12T03:00:05.903Z,0
2023-02-12T03:01:03.011Z,0
2023-02-12T03:02:02.849Z,0
2023-02-12T03:03:02.918Z,0
2023-02-12T03:04:05.807Z,0
2023-02-12T03:05:02.787Z,0
2023-02-12T03:06:03.164Z,0
2023-02-12T03:07:02.771Z,0
2023-02-12T03:08:02.757Z,0
2023-02-12T03:09:02.743Z,0
2023-02-12T03:10:02.788Z,0
2023-02-12T03:11:03.780Z,0
2023-02-12T03:12:02.990Z,0
2023-02-12T03:13:02.767Z,0
2023-02-12T03:14:02.760Z,0
2023-02-12T03:15:05.582Z,0
2023-02-12T03:16:03.638Z,0
2023-02-12T03:17:02.793Z,0
2023-02-12T03:18:02.782Z,0
2023-02-12T03:19:02.770Z,0
2023-02-12T03:20:02.866Z,0
2023-02-12T03:21:02.771Z,0
2023-02-12T03:22:02.801Z,0
2023-02-12T03:23:02.793Z,0
2023-02-12T03:24:03.004Z,0
2023-02-12T03:25:02.805Z,0
2023-02-12T03:26:06.234Z,0
2023-02-12T03:27:02.788Z,0
2023-02-12T03:28:03.033Z,0
2023-02-12T03:29:02.764Z,0
2023-02-12T03:30:02.785Z,0
2023-02-12T03:31:06.241Z,0
2023-02-12T03:32:02.905Z,0
2023-02-12T03:33:02.797Z,0
2023-02-12T03:34:02.808Z,0
2023-02-12T03:35:02.833Z,0
2023-02-12T03:36:03.307Z,0
2023-02-12T03:37:05.910Z,0
2023-02-12T03:38:02.866Z,0
2023-02-12T03:39:02.862Z,0
2023-02-12T03:40:02.861Z,0
2023-02-12T03:41:02.859Z,0
2023-02-12T03:42:05.683Z,0
2023-02-12T03:43:02.809Z,0
2023-02-12T03:44:02.888Z,0
2023-02-12T03:45:02.840Z,0
2023-02-12T03:46:03.971Z,0
2023-02-12T03:47:02.813Z,0
2023-02-12T03:48:05.624Z,0
2023-02-12T03:49:02.860Z,0
2023-02-12T03:50:02.839Z,0
2023-02-12T03:51:02.816Z,0
2023-02-12T03:52:02.821Z,0
2023-02-12T03:53:05.625Z,0
2023-02-12T03:54:02.847Z,0
2023-02-12T03:55:02.877Z,0
2023-02-12T03:56:03.226Z,0
2023-02-12T03:57:02.855Z,0
2023-02-12T03:58:02.845Z,0
2023-02-12T03:59:02.837Z,0
2023-02-12T04:00:02.927Z,0
2023-02-12T04:01:02.969Z,0
2023-02-12T04:02:03.307Z,0
2023-02-12T04:03:02.816Z,0
2023-02-12T04:04:03.197Z,0
2023-02-12T04:05:02.904Z,0
2023-02-12T04:06:03.402Z,0
2023-02-12T04:07:02.849Z,0
2023-02-12T04:08:02.826Z,0
2023-02-12T04:09:02.924Z,0
2023-02-12T04:10:02.863Z,0
2023-02-12T04:11:02.871Z,0
2023-02-12T04:12:02.850Z,0
2023-02-12T04:13:02.849Z,0
2023-02-12T04:14:03.086Z,0
2023-02-12T04:15:03.345Z,0
2023-02-12T04:16:03.762Z,0
2023-02-12T04:17:03.390Z,0
2023-02-12T04:18:03.245Z,0
2023-02-12T04:19:02.856Z,0
2023-02-12T04:20:05.705Z,0
2023-02-12T04:21:02.908Z,0
2023-02-12T04:22:02.890Z,0
2023-02-12T04:23:02.823Z,0
2023-02-12T04:24:02.873Z,0
2023-02-12T04:25:02.924Z,0
2023-02-12T04:26:03.545Z,0
2023-02-12T04:27:02.922Z,0
2023-02-12T04:28:03.084Z,0
2023-02-12T04:29:02.902Z,0
2023-02-12T04:30:02.903Z,0
2023-02-12T04:31:06.311Z,0
2023-02-12T04:32:03.945Z,0
2023-02-12T04:33:03.896Z,0
2023-02-12T04:34:02.860Z,0
2023-02-12T04:35:02.895Z,0
2023-02-12T04:36:05.889Z,0
2023-02-12T04:37:02.918Z,0
2023-02-12T04:38:02.888Z,0
2023-02-12T04:39:02.870Z,0
2023-02-12T04:40:02.931Z,0
2023-02-12T04:41:02.882Z,0
2023-02-12T04:42:05.963Z,0
2023-02-12T04:43:02.895Z,0
2023-02-12T04:44:02.890Z,0
2023-02-12T04:45:04.024Z,0
2023-02-12T04:46:03.819Z,0
2023-02-12T04:47:06.068Z,0
2023-02-12T04:48:02.919Z,0
2023-02-12T04:49:02.897Z,0
2023-02-12T04:50:02.936Z,0
2023-02-12T04:51:02.932Z,0
2023-02-12T04:52:02.918Z,0
2023-02-12T04:53:05.689Z,0
2023-02-12T04:54:02.910Z,0
2023-02-12T04:55:02.927Z,0
2023-02-12T04:56:03.408Z,0
2023-02-12T04:57:02.939Z,0
2023-02-12T04:58:06.030Z,0
2023-02-12T04:59:02.901Z,0
2023-02-12T05:00:02.951Z,0
2023-02-12T05:01:03.124Z,0
2023-02-12T05:02:02.926Z,0
2023-02-12T05:03:03.034Z,0
2023-02-12T05:04:05.965Z,0
2023-02-12T05:05:06.162Z,0
2023-02-12T05:06:03.313Z,0
2023-02-12T05:07:02.945Z,0
2023-02-12T05:08:02.981Z,0
2023-02-12T05:09:05.700Z,0
2023-02-12T05:10:03.021Z,0
2023-02-12T05:11:02.932Z,0
2023-02-12T05:12:02.993Z,0
2023-02-12T05:13:02.936Z,0
2023-02-12T05:14:03.174Z,0
2023-02-12T05:15:05.864Z,0
2023-02-12T05:16:03.973Z,0
2023-02-12T05:17:02.974Z,0
2023-02-12T05:18:02.972Z,0
2023-02-12T05:19:03.053Z,0
2023-02-12T05:20:05.750Z,0
2023-02-12T05:21:02.977Z,0
2023-02-12T05:22:02.954Z,0
2023-02-12T05:23:02.955Z,0
2023-02-12T05:24:02.962Z,0
2023-02-12T05:25:02.972Z,0
2023-02-12T05:26:03.494Z,0
2023-02-12T05:27:02.973Z,0
2023-02-12T05:28:04.406Z,0
2023-02-12T05:29:02.956Z,0
2023-02-12T05:30:03.010Z,0
2023-02-12T05:31:06.638Z,0
2023-02-12T05:32:03.625Z,0
2023-02-12T05:33:02.972Z,0
2023-02-12T05:34:02.965Z,0
2023-02-12T05:35:03.164Z,0
2023-02-12T05:36:03.337Z,0
2023-02-12T05:37:02.982Z,0
2023-02-12T05:38:02.969Z,0
2023-02-12T05:39:03.012Z,0
2023-02-12T05:40:03.042Z,0
2023-02-12T05:41:02.984Z,0
2023-02-12T05:42:05.942Z,0
2023-02-12T05:43:03.000Z,0
2023-02-12T05:44:02.970Z,0
2023-02-12T05:45:03.004Z,0
2023-02-12T05:46:03.814Z,0
2023-02-12T05:47:03.034Z,0
2023-02-12T05:48:02.969Z,0
2023-02-12T05:49:02.980Z,0
2023-02-12T05:50:03.102Z,0
2023-02-12T05:51:03.115Z,0
2023-02-12T05:52:03.032Z,0
2023-02-12T05:53:05.992Z,0
2023-02-12T05:54:03.032Z,0
2023-02-12T05:55:03.054Z,0
2023-02-12T05:56:03.366Z,0
2023-02-12T05:57:02.987Z,0
2023-02-12T05:58:06.117Z,0
2023-02-12T05:59:03.019Z,0
2023-02-12T06:00:03.069Z,0
2023-02-12T06:01:03.038Z,0
2023-02-12T06:02:03.097Z,0
2023-02-12T06:03:03.192Z,0
2023-02-12T06:04:06.360Z,0
2023-02-12T06:05:03.040Z,0
2023-02-12T06:06:03.533Z,0
2023-02-12T06:07:03.141Z,0
2023-02-12T06:08:03.060Z,0
2023-02-12T06:09:05.804Z,0
2023-02-12T06:10:03.188Z,0
2023-02-12T06:11:03.056Z,0
2023-02-12T06:12:03.052Z,0
2023-02-12T06:13:03.032Z,0
2023-02-12T06:14:03.058Z,0
2023-02-12T06:15:05.966Z,0
2023-02-12T06:16:07.233Z,4
2023-02-12T06:17:03.050Z,0
2023-02-12T06:18:03.054Z,0
2023-02-12T06:19:03.094Z,0
2023-02-12T06:20:04.348Z,0
2023-02-12T06:21:03.053Z,4
2023-02-12T06:22:03.038Z,4
2023-02-12T06:23:03.218Z,0
2023-02-12T06:24:03.065Z,4
2023-02-12T06:25:03.083Z,4
2023-02-12T06:26:03.571Z,4
2023-02-12T06:27:03.077Z,4
2023-02-12T06:28:03.215Z,4
2023-02-12T06:29:04.476Z,4
2023-02-12T06:30:03.109Z,4
2023-02-12T06:31:03.630Z,8
2023-02-12T06:32:03.878Z,4
2023-02-12T06:33:04.118Z,8
2023-02-12T06:34:03.129Z,8
2023-02-12T06:35:04.098Z,8
2023-02-12T06:36:03.687Z,4
2023-02-12T06:37:03.095Z,4
2023-02-12T06:38:03.075Z,8
2023-02-12T06:39:03.337Z,8
2023-02-12T06:40:03.160Z,8
2023-02-12T06:41:03.126Z,4
2023-02-12T06:42:03.102Z,12
2023-02-12T06:43:03.115Z,8
2023-02-12T06:44:03.114Z,12
2023-02-12T06:45:04.142Z,8
2023-02-12T06:46:03.671Z,8
2023-02-12T06:47:06.515Z,8
2023-02-12T06:48:03.092Z,12
2023-02-12T06:49:03.221Z,12
2023-02-12T06:50:03.208Z,12
2023-02-12T06:51:02.902Z,12
2023-02-12T06:52:05.573Z,12
2023-02-12T06:53:03.111Z,12
2023-02-12T06:54:03.115Z,16
2023-02-12T06:55:03.290Z,16
2023-02-12T06:56:03.570Z,16
2023-02-12T06:57:03.146Z,16
2023-02-12T06:58:05.978Z,16
2023-02-12T06:59:03.114Z,16
2023-02-12T07:00:03.234Z,16
2023-02-12T07:01:03.286Z,20
2023-02-12T07:02:03.139Z,20
2023-02-12T07:03:06.081Z,20
2023-02-12T07:04:03.634Z,20
2023-02-12T07:05:03.156Z,24
2023-02-12T07:06:03.626Z,20
2023-02-12T07:07:03.102Z,24
2023-02-12T07:08:03.119Z,20
2023-02-12T07:09:06.172Z,24
2023-02-12T07:10:03.270Z,24
2023-02-12T07:11:03.194Z,24
2023-02-12T07:12:03.152Z,24
2023-02-12T07:13:03.098Z,24
2023-02-12T07:14:06.217Z,24
2023-02-12T07:15:03.214Z,24
2023-02-12T07:16:04.032Z,24
2023-02-12T07:17:04.349Z,28
2023-02-12T07:18:03.163Z,28
2023-02-12T07:19:03.115Z,28
2023-02-12T07:20:06.272Z,32
2023-02-12T07:21:03.247Z,32
2023-02-12T07:22:03.262Z,32
2023-02-12T07:23:03.145Z,32
2023-02-12T07:24:03.165Z,32
2023-02-12T07:25:05.977Z,32
2023-02-12T07:26:03.599Z,36
2023-02-12T07:27:03.326Z,36
2023-02-12T07:28:03.485Z,36
2023-02-12T07:29:03.182Z,40
2023-02-12T07:30:03.165Z,40
2023-02-12T07:31:06.639Z,40
2023-02-12T07:32:06.352Z,40
2023-02-12T07:33:03.208Z,40
2023-02-12T07:34:03.207Z,44
2023-02-12T07:35:03.275Z,40
2023-02-12T07:36:06.836Z,40
2023-02-12T07:37:03.210Z,44
2023-02-12T07:38:03.188Z,44
2023-02-12T07:39:03.159Z,44
2023-02-12T07:40:03.193Z,48
2023-02-12T07:41:03.171Z,48
2023-02-12T07:42:02.714Z,52
2023-02-12T07:43:03.283Z,52
2023-02-12T07:44:03.229Z,52
2023-02-12T07:45:03.302Z,56
2023-02-12T07:46:04.039Z,56
2023-02-12T07:47:06.343Z,60
2023-02-12T07:48:03.190Z,64
2023-02-12T07:49:03.206Z,72
2023-02-12T07:50:03.250Z,80
2023-02-12T07:51:03.180Z,88
2023-02-12T07:52:03.215Z,92
2023-02-12T07:53:12.095Z,96
2023-02-12T07:54:03.239Z,96
2023-02-12T07:55:03.226Z,96
2023-02-12T07:56:03.756Z,96
2023-02-12T07:57:03.211Z,96
2023-02-12T07:58:06.143Z,100
2023-02-12T07:59:03.238Z,100
2023-02-12T08:00:03.068Z,100
2023-02-12T08:01:03.185Z,100
2023-02-12T08:02:03.652Z,96
2023-02-12T08:03:03.210Z,96
2023-02-12T08:04:03.404Z,96
2023-02-12T08:05:03.949Z,100
2023-02-12T08:06:03.719Z,104
2023-02-12T08:07:03.199Z,104
2023-02-12T08:08:03.200Z,104
2023-02-12T08:09:06.136Z,108
2023-02-12T08:10:03.254Z,108
2023-02-12T08:11:03.190Z,116
2023-02-12T08:12:04.061Z,120
2023-02-12T08:13:03.213Z,124
2023-02-12T08:14:03.245Z,132
2023-02-12T08:15:03.261Z,132
2023-02-12T08:16:06.521Z,132
2023-02-12T08:17:03.202Z,136
2023-02-12T08:18:03.206Z,136
2023-02-12T08:19:30.058Z,144
2023-02-12T08:20:05.937Z,140
2023-02-12T08:21:02.929Z,144
2023-02-12T08:22:03.106Z,144
2023-02-12T08:23:03.113Z,144
2023-02-12T08:24:03.253Z,148
2023-02-12T08:25:06.447Z,148
2023-02-12T08:26:03.872Z,148
2023-02-12T08:27:03.084Z,148
2023-02-12T08:28:03.226Z,148
2023-02-12T08:29:03.258Z,148
2023-02-12T08:30:03.396Z,144
2023-02-12T08:31:06.485Z,144
2023-02-12T08:32:03.809Z,140
2023-02-12T08:33:03.229Z,136
2023-02-12T08:34:03.235Z,136
2023-02-12T08:35:03.282Z,132
2023-02-12T08:36:07.284Z,132
2023-02-12T08:37:03.549Z,132
2023-02-12T08:38:03.255Z,136
2023-02-12T08:39:03.271Z,140
2023-02-12T08:40:03.443Z,144
2023-02-12T08:41:03.409Z,148
2023-02-12T08:42:06.039Z,156
2023-02-12T08:43:03.280Z,164
2023-02-12T08:44:03.279Z,172
2023-02-12T08:45:03.269Z,184
2023-02-12T08:46:04.049Z,196
2023-02-12T08:47:06.361Z,204
2023-02-12T08:48:03.283Z,208
2023-02-12T08:49:03.284Z,208
2023-02-12T08:50:03.247Z,208
2023-02-12T08:51:03.284Z,208
2023-02-12T08:52:03.280Z,208
2023-02-12T08:53:03.256Z,208
2023-02-12T08:54:03.161Z,220
2023-02-12T08:55:03.300Z,220
2023-02-12T08:56:03.842Z,208
2023-02-12T08:57:03.376Z,200
2023-02-12T08:58:03.295Z,212
2023-02-12T08:59:03.312Z,220
2023-02-12T09:00:03.337Z,232
2023-02-12T09:01:03.454Z,248
2023-02-12T09:02:03.735Z,264
2023-02-12T09:03:03.310Z,296
2023-02-12T09:04:03.277Z,304
2023-02-12T09:05:03.338Z,248
2023-02-12T09:06:03.776Z,192
2023-02-12T09:07:03.325Z,156
2023-02-12T09:08:03.305Z,148
2023-02-12T09:09:03.295Z,144
2023-02-12T09:10:03.336Z,148
2023-02-12T09:11:03.306Z,148
2023-02-12T09:12:03.303Z,164
2023-02-12T09:13:03.315Z,180
2023-02-12T09:14:06.274Z,156
2023-02-12T09:15:03.313Z,136
2023-02-12T09:16:04.097Z,124
2023-02-12T09:17:03.588Z,120
2023-02-12T09:18:03.400Z,124
2023-02-12T09:19:03.417Z,140
2023-02-12T09:20:03.303Z,204
2023-02-12T09:21:03.322Z,244
2023-02-12T09:22:03.929Z,236
2023-02-12T09:23:03.292Z,224
2023-02-12T09:24:03.359Z,216
2023-02-12T09:25:03.532Z,208
2023-02-12T09:26:03.766Z,216
2023-02-12T09:27:03.280Z,220
2023-02-12T09:28:03.448Z,228
2023-02-12T09:29:03.165Z,224
2023-02-12T09:30:06.323Z,228
2023-02-12T09:31:03.994Z,228
2023-02-12T09:32:03.833Z,224
2023-02-12T09:33:03.407Z,232
2023-02-12T09:34:03.407Z,232
2023-02-12T09:35:03.341Z,232
2023-02-12T09:36:06.652Z,236
2023-02-12T09:37:03.008Z,236
2023-02-12T09:38:03.318Z,236
2023-02-12T09:39:03.366Z,240
2023-02-12T09:40:03.324Z,248
2023-02-12T09:41:06.324Z,252
2023-02-12T09:42:03.217Z,256
2023-02-12T09:43:03.332Z,256
2023-02-12T09:44:03.349Z,252
2023-02-12T09:45:03.476Z,252
2023-02-12T09:46:04.606Z,244
2023-02-12T09:47:06.412Z,240
2023-02-12T09:48:03.366Z,248
2023-02-12T09:49:03.341Z,252
2023-02-12T09:50:03.454Z,268
2023-02-12T09:51:03.383Z,284
2023-02-12T09:52:06.196Z,296
2023-02-12T09:53:03.395Z,288
2023-02-12T09:54:03.343Z,244
2023-02-12T09:55:03.372Z,180
2023-02-12T09:56:03.833Z,148
2023-02-12T09:57:03.388Z,148
2023-02-12T09:58:06.128Z,144
2023-02-12T09:59:03.376Z,152
2023-02-12T10:00:03.455Z,164
2023-02-12T10:01:03.495Z,188
2023-02-12T10:02:03.466Z,212
2023-02-12T10:03:09.824Z,200
2023-02-12T10:04:03.637Z,200
2023-02-12T10:05:09.135Z,208
2023-02-12T10:06:03.859Z,236
2023-02-12T10:07:03.414Z,260
2023-02-12T10:08:03.367Z,264
2023-02-12T10:09:06.174Z,272
2023-02-12T10:10:05.149Z,288
2023-02-12T10:11:03.364Z,308
2023-02-12T10:12:03.437Z,328
2023-02-12T10:13:03.236Z,356
2023-02-12T10:14:06.134Z,388
2023-02-12T10:15:03.421Z,412
2023-02-12T10:16:04.450Z,436
2023-02-12T10:17:03.381Z,444
2023-02-12T10:18:03.380Z,440
2023-02-12T10:19:03.410Z,428
2023-02-12T10:20:06.224Z,380
2023-02-12T10:21:04.294Z,360
2023-02-12T10:22:03.401Z,352
2023-02-12T10:23:04.388Z,320
2023-02-12T10:24:03.417Z,296
2023-02-12T10:25:07.616Z,288
2023-02-12T10:26:04.272Z,280
2023-02-12T10:27:04.487Z,256
2023-02-12T10:28:03.544Z,240
2023-02-12T10:29:03.478Z,224
2023-02-12T10:30:03.432Z,228
2023-02-12T10:31:07.137Z,236
2023-02-12T10:32:04.532Z,252
2023-02-12T10:33:03.484Z,260
2023-02-12T10:34:03.521Z,264
2023-02-12T10:35:03.408Z,264
2023-02-12T10:36:06.753Z,268
2023-02-12T10:37:03.440Z,276
2023-02-12T10:38:03.428Z,280
2023-02-12T10:39:03.445Z,292
2023-02-12T10:40:03.406Z,308
2023-02-12T10:41:03.414Z,328
2023-02-12T10:42:03.429Z,364
2023-02-12T10:43:03.480Z,372
2023-02-12T10:44:03.931Z,356
2023-02-12T10:45:03.392Z,328
2023-02-12T10:46:04.135Z,308
2023-02-12T10:47:06.745Z,308
2023-02-12T10:48:03.411Z,328
2023-02-12T10:49:03.590Z,352
2023-02-12T10:50:03.605Z,336
2023-02-12T10:51:03.451Z,308
2023-02-12T10:52:04.515Z,348
2023-02-12T10:53:03.952Z,368
2023-02-12T10:54:05.219Z,296
2023-02-12T10:55:03.459Z,252
2023-02-12T10:56:04.007Z,260
2023-02-12T10:57:03.429Z,280
2023-02-12T10:58:08.289Z,260
2023-02-12T10:59:03.445Z,208
2023-02-12T11:00:03.434Z,164
2023-02-12T11:01:03.457Z,144
2023-02-12T11:02:03.648Z,132
2023-02-12T11:03:06.202Z,132
2023-02-12T11:04:03.434Z,148
2023-02-12T11:05:03.738Z,196
2023-02-12T11:06:03.995Z,208
2023-02-12T11:07:03.536Z,176
2023-02-12T11:08:03.496Z,144
2023-02-12T11:09:06.375Z,152
2023-02-12T11:10:03.486Z,172
2023-02-12T11:11:03.477Z,176
2023-02-12T11:12:03.486Z,176
2023-02-12T11:13:03.533Z,156
2023-02-12T11:14:06.309Z,152
2023-02-12T11:15:03.547Z,168
2023-02-12T11:16:04.661Z,212
2023-02-12T11:17:03.500Z,220
2023-02-12T11:18:05.467Z,224
2023-02-12T11:19:03.489Z,228
2023-02-12T11:20:03.575Z,236
2023-02-12T11:21:03.531Z,240
2023-02-12T11:22:03.495Z,244
2023-02-12T11:23:03.478Z,248
2023-02-12T11:24:05.113Z,244
2023-02-12T11:25:03.472Z,240
2023-02-12T11:26:03.956Z,232
2023-02-12T11:27:03.518Z,232
2023-02-12T11:28:03.963Z,232
2023-02-12T11:29:04.282Z,228
2023-02-12T11:30:03.463Z,216
2023-02-12T11:31:04.054Z,204
2023-02-12T11:32:03.765Z,204
2023-02-12T11:33:03.527Z,204
2023-02-12T11:34:03.527Z,200
2023-02-12T11:35:03.547Z,192
2023-02-12T11:36:06.801Z,192
2023-02-12T11:37:03.542Z,184
2023-02-12T11:38:03.525Z,180
2023-02-12T11:39:03.486Z,184
2023-02-12T11:40:03.549Z,180
2023-02-12T11:41:07.309Z,180
2023-02-12T11:42:03.490Z,180
2023-02-12T11:43:03.509Z,184
2023-02-12T11:44:03.476Z,184
2023-02-12T11:45:03.574Z,188
2023-02-12T11:46:07.524Z,196
2023-02-12T11:47:03.836Z,208
2023-02-12T11:48:03.485Z,212
2023-02-12T11:49:03.512Z,216
2023-02-12T11:50:03.490Z,212
2023-02-12T11:51:03.557Z,200
2023-02-12T11:52:06.711Z,196
2023-02-12T11:53:03.544Z,192
2023-02-12T11:54:03.500Z,184
2023-02-12T11:55:03.511Z,184
2023-02-12T11:56:04.545Z,196
2023-02-12T11:57:06.703Z,196
2023-02-12T11:58:03.508Z,188
2023-02-12T11:59:03.577Z,180
2023-02-12T12:00:03.537Z,176
2023-02-12T12:01:03.514Z,172
2023-02-12T12:02:03.901Z,164
2023-02-12T12:03:06.562Z,164
2023-02-12T12:04:03.591Z,156
2023-02-12T12:05:03.539Z,148
2023-02-12T12:06:03.883Z,148
2023-02-12T12:07:03.574Z,136
2023-02-12T12:08:06.334Z,136
2023-02-12T12:09:03.530Z,136
2023-02-12T12:10:03.551Z,136
2023-02-12T12:11:03.525Z,140
2023-02-12T12:12:03.588Z,144
2023-02-12T12:13:03.520Z,148
2023-02-12T12:14:06.406Z,148
2023-02-12T12:15:03.627Z,152
2023-02-12T12:16:04.238Z,152
2023-02-12T12:17:03.554Z,148
2023-02-12T12:18:03.538Z,152
2023-02-12T12:19:03.974Z,156
2023-02-12T12:20:03.556Z,156
2023-02-12T12:21:03.558Z,152
2023-02-12T12:22:03.540Z,156
2023-02-12T12:23:03.552Z,164
2023-02-12T12:24:03.585Z,164
2023-02-12T12:25:06.735Z,164
2023-02-12T12:26:04.061Z,164
2023-02-12T12:27:03.573Z,172
2023-02-12T12:28:03.860Z,172
2023-02-12T12:29:03.581Z,176
2023-02-12T12:30:06.729Z,180
2023-02-12T12:31:03.896Z,180
2023-02-12T12:32:03.856Z,176
2023-02-12T12:33:03.602Z,180
2023-02-12T12:34:03.402Z,184
2023-02-12T12:35:03.619Z,188
2023-02-12T12:36:07.130Z,192
2023-02-12T12:37:03.572Z,200
2023-02-12T12:38:03.568Z,204
2023-02-12T12:39:03.473Z,212
2023-02-12T12:40:03.705Z,216
2023-02-12T12:41:06.624Z,220
2023-02-12T12:42:03.592Z,224
2023-02-12T12:43:03.644Z,228
2023-02-12T12:44:03.626Z,228
2023-02-12T12:45:03.597Z,220
2023-02-12T12:46:04.848Z,224
2023-02-12T12:47:06.642Z,212
2023-02-12T12:48:03.590Z,204
2023-02-12T12:49:03.596Z,204
2023-02-12T12:50:03.592Z,204
2023-02-12T12:51:03.613Z,200
2023-02-12T12:52:06.673Z,204
2023-02-12T12:53:03.578Z,200
2023-02-12T12:54:03.616Z,200
2023-02-12T12:55:03.575Z,208
2023-02-12T12:56:04.182Z,216
2023-02-12T12:57:03.645Z,228
2023-02-12T12:58:03.624Z,240
2023-02-12T12:59:03.613Z,244
2023-02-12T13:00:03.667Z,248
2023-02-12T13:01:03.724Z,248
2023-02-12T13:02:03.760Z,240
2023-02-12T13:03:06.743Z,216
2023-02-12T13:04:03.654Z,204
2023-02-12T13:05:03.626Z,196
2023-02-12T13:06:04.398Z,184
2023-02-12T13:07:03.614Z,180
2023-02-12T13:08:03.661Z,180
2023-02-12T13:09:03.652Z,176
2023-02-12T13:10:03.609Z,184
2023-02-12T13:11:03.621Z,180
2023-02-12T13:12:03.627Z,176
2023-02-12T13:13:03.710Z,172
2023-02-12T13:14:06.470Z,172
2023-02-12T13:15:03.619Z,176
2023-02-12T13:16:04.178Z,176
2023-02-12T13:17:03.778Z,176
2023-02-12T13:18:03.651Z,176
2023-02-12T13:19:03.793Z,180
2023-02-12T13:20:03.660Z,188
2023-02-12T13:21:03.642Z,180
2023-02-12T13:22:03.783Z,176
2023-02-12T13:23:03.657Z,172
2023-02-12T13:24:03.664Z,164
2023-02-12T13:25:06.724Z,160
2023-02-12T13:26:04.070Z,160
2023-02-12T13:27:03.643Z,160
2023-02-12T13:28:03.965Z,168
2023-02-12T13:29:03.659Z,172
2023-02-12T13:30:09.486Z,172
2023-02-12T13:31:06.897Z,176
2023-02-12T13:32:04.203Z,180
2023-02-12T13:33:03.681Z,192
2023-02-12T13:34:03.734Z,200
2023-02-12T13:35:03.540Z,204
2023-02-12T13:36:06.962Z,212
2023-02-12T13:37:03.705Z,212
2023-02-12T13:38:03.694Z,216
2023-02-12T13:39:03.733Z,216
2023-02-12T13:40:03.655Z,208
2023-02-12T13:41:06.700Z,208
2023-02-12T13:42:03.669Z,208
2023-02-12T13:43:03.704Z,204
2023-02-12T13:44:03.749Z,200
2023-02-12T13:45:03.665Z,192
2023-02-12T13:46:04.742Z,184
2023-02-12T13:47:03.694Z,180
2023-02-12T13:48:03.587Z,176
2023-02-12T13:49:03.665Z,172
2023-02-12T13:50:03.692Z,172
2023-02-12T13:51:07.814Z,168
2023-02-12T13:52:03.518Z,168
2023-02-12T13:53:03.841Z,168
2023-02-12T13:54:03.513Z,172
2023-02-12T13:55:04.688Z,176
2023-02-12T13:56:04.184Z,176
2023-02-12T13:57:03.704Z,180
2023-02-12T13:58:03.730Z,184
2023-02-12T13:59:03.691Z,176
2023-02-12T14:00:03.688Z,172
2023-02-12T14:01:03.814Z,176
2023-02-12T14:02:03.739Z,172
2023-02-12T14:03:03.707Z,164
2023-02-12T14:04:03.760Z,164
2023-02-12T14:05:03.747Z,160
2023-02-12T14:06:04.102Z,160
2023-02-12T14:07:06.219Z,152
2023-02-12T14:08:06.752Z,148
2023-02-12T14:09:03.693Z,144
2023-02-12T14:10:03.678Z,136
2023-02-12T14:11:03.769Z,128
2023-02-12T14:12:03.778Z,128
2023-02-12T14:13:03.753Z,124
2023-02-12T14:14:03.687Z,120
2023-02-12T14:15:03.873Z,120
2023-02-12T14:16:04.773Z,108
2023-02-12T14:17:04.741Z,104
2023-02-12T14:18:03.773Z,108